Flight Track Log - Related Links

Times and Time Zones

All times are in EDT time to prevent confusion due to time zone crossing. See the N477AA flight status page for this flight to view local times or setup timezone preferences in your user account.

Time Position Orientation Groundspeed Altitude Reporting Facility
EDT Latitude Longitude Course Direction KTS MPH feet Rate Location/Type
Tue 04:40:32 PM 32.7058 -97.0172 358° North  Level FlightAware Approximate
Tue 04:40:40 PM 32.9278 -97.0247 69° East 172 198 1,900  Level FAA TRACON SMA TRACON (SMA)
Tue 04:45:15 PM 33.0333 -96.7000 78° East 319 367 10,400 1,913 Climbing Dallas / Fort Worth TRACON
Tue 04:46:00 PM 33.0464 -96.6256 85° East 340 391 12,100 2,302 Climbing FAA TRACON SMA TRACON (SMA)
Tue 04:46:41 PM 33.0517 -96.5453 85° East 353 406 13,700 2,444 Climbing FAA TRACON SMA TRACON (SMA)
Tue 04:47:21 PM 33.0578 -96.4625 83° East 364 419 15,400 2,203 Climbing FAA TRACON SMA TRACON (SMA)
Tue 04:48:00 PM 33.0650 -96.3881 76° East 370 426 16,600 1,899 Climbing FAA TRACON SMA TRACON (SMA)
Tue 04:48:40 PM 33.0822 -96.3042 67° East 381 438 17,900 2,025 Climbing FAA TRACON SMA TRACON (SMA)
Tue 04:49:20 PM 33.1114 -96.2217 68° East 390 449 19,300 1,875 Climbing FAA TRACON SMA TRACON (SMA)
Tue 04:50:00 PM 33.1358 -96.1481 71° East 389 448 20,400 1,407 Climbing FAA TRACON SMA TRACON (SMA)
Tue 04:50:41 PM 33.1603 -96.0614 72° East 400 460 21,200 1,185 Climbing FAA TRACON SMA TRACON (SMA)
Tue 04:51:21 PM 33.1850 -95.9722 70° East 411 473 22,000 1,200 Climbing FAA TRACON SMA TRACON (SMA)
Tue 04:52:01 PM 33.2067 -95.9028 72° East 415 478 22,800 1,278 Climbing FAA TRACON SMA TRACON (SMA)
Tue 04:53:09 PM 33.2522 -95.7367 73° East 418 481 24,300 1,172 Climbing Fort Worth Center
Tue 04:54:09 PM 33.2878 -95.5994 73° East 427 491 25,300 1,000 Climbing Fort Worth Center
Tue 04:55:09 PM 33.3233 -95.4594 74° East 427 491 26,300 850 Climbing Fort Worth Center
Tue 04:56:09 PM 33.3508 -95.3444 69° East 432 497 27,000 900 Climbing Fort Worth Center
Tue 04:57:09 PM 33.4064 -95.1739 78° East 448 516 28,100 950 Climbing Fort Worth Center
Tue 04:58:09 PM 33.4328 -95.0264 85° East 453 521 28,900 850 Climbing Fort Worth Center
Tue 04:59:09 PM 33.4444 -94.8692 82° East 453 521 29,800 900 Climbing Fort Worth Center
Tue 05:00:09 PM 33.4619 -94.7094 85° East 471 542 30,700 850 Climbing Fort Worth Center
Tue 05:01:09 PM 33.4731 -94.5497 84° East 476 548 31,500 800 Climbing Fort Worth Center
Tue 05:02:09 PM 33.4844 -94.4222 83° East 481 554 32,300 700 Climbing Fort Worth Center
Tue 05:03:09 PM 33.5011 -94.2475 85° East 481 554 32,900 350 Climbing Fort Worth Center
Tue 05:04:09 PM 33.5136 -94.0875 83° East 486 559 33,000 50 Climbing Fort Worth Center
Tue 05:05:09 PM 33.5300 -93.9200 86° East 486 559 33,000  Level Fort Worth Center
Tue 05:06:09 PM 33.5400 -93.7550 84° East 486 559 33,000  Level Fort Worth Center
Tue 05:07:09 PM 33.5539 -93.5925 86° East 491 565 33,000  Level Fort Worth Center
Tue 05:08:09 PM 33.5636 -93.4325 85° East 491 565 33,000  Level Fort Worth Center
Tue 05:09:09 PM 33.5750 -93.2675 85° East 486 559 33,000  Level Fort Worth Center
Tue 05:10:45 PM 33.5961 -92.9958 85° East 479 551 33,000  Level Memphis Center
Tue 05:11:45 PM 33.6078 -92.8339 86° East 479 551 33,000  Level Memphis Center
Tue 05:12:45 PM 33.6172 -92.6697 84° East 484 557 33,000  Level Memphis Center
Tue 05:13:45 PM 33.6306 -92.5053 84° East 484 557 33,000  Level Memphis Center
Tue 05:14:45 PM 33.6436 -92.3433 87° East 484 557 33,000  Level Memphis Center
Tue 05:15:45 PM 33.6503 -92.1814 76° East 484 557 33,000  Level Memphis Center
Tue 05:16:45 PM 33.6817 -92.0247 77° East 479 551 33,000  Level Memphis Center
Tue 05:17:45 PM 33.7128 -91.8656 77° East 479 551 33,000  Level Memphis Center
Tue 05:18:45 PM 33.7439 -91.7011 71° East 486 559 33,000  Level Memphis Center
Tue 05:19:45 PM 33.7872 -91.5469 72° East 486 559 33,000  Level Memphis Center
Tue 05:20:45 PM 33.8283 -91.3925 72° East 491 565 33,000  Level Memphis Center
Tue 05:21:45 PM 33.8669 -91.2528 72° East 491 565 33,000  Level Memphis Center
Tue 05:22:45 PM 33.9097 -91.0956 67° East 486 559 33,000  Level Memphis Center
Tue 05:23:45 PM 33.9628 -90.9458 67° East 481 554 33,000  Level Memphis Center
Tue 05:24:45 PM 34.0156 -90.7983 64° Northeast 486 559 33,000  Level Memphis Center
Tue 05:25:45 PM 34.0764 -90.6481 62° Northeast 486 559 33,000  Level Memphis Center
Tue 05:26:45 PM 34.1392 -90.5053 63° Northeast 486 559 33,000  Level Memphis Center
Tue 05:27:45 PM 34.2019 -90.3572 62° Northeast 486 559 33,000  Level Memphis Center
Tue 05:28:45 PM 34.2706 -90.2014 61° Northeast 481 554 33,000  Level Memphis Center
Tue 05:29:45 PM 34.3372 -90.0553 64° Northeast 476 548 33,000  Level Memphis Center
Tue 05:30:45 PM 34.3972 -89.9092 61° Northeast 476 548 33,000  Level Memphis Center
Tue 05:31:45 PM 34.4633 -89.7650 64° Northeast 476 548 33,000  Level Memphis Center
Tue 05:32:45 PM 34.5231 -89.6186 67° East 482 555 33,000  Level Memphis Center
Tue 05:33:45 PM 34.5764 -89.4642 69° East 482 555 33,000 -50 Level Memphis Center
Tue 05:34:45 PM 34.6253 -89.3072 75° East 488 562 32,900 -550 Descending Memphis Center
Tue 05:35:45 PM 34.6592 -89.1503 75° East 488 562 31,900 -850 Descending Memphis Center
Tue 05:36:45 PM 34.6931 -88.9981 80° East 468 539 31,200 -450 Descending Memphis Center
Tue 05:37:45 PM 34.7164 -88.8386 85° East 468 539 31,000 -100 Descending Memphis Center
Tue 05:38:45 PM 34.7289 -88.6792 84° East 468 539 31,000 -600 Level Memphis Center
Tue 05:39:45 PM 34.7433 -88.5172 89° East 473 544 29,800 -1,000 Descending Memphis Center
Tue 05:40:45 PM 34.7456 -88.3883 98° East 453 521 29,000 -400 Descending Memphis Center
Tue 05:41:45 PM 34.7283 -88.2369 96° East 442 509 29,000  Level Memphis Center
Tue 05:42:45 PM 34.7128 -88.0631 95° East 463 533 29,000  Level Memphis Center
Tue 05:43:45 PM 34.7019 -87.9269 96° East 456 525 29,000  Level Memphis Center
Tue 05:44:45 PM 34.6883 -87.7733 96° East 463 533 29,000  Level Memphis Center
Tue 05:46:29 PM 34.6636 -87.5061 96° East 470 541 29,000  Level Atlanta Center
Tue 05:47:29 PM 34.6492 -87.3489 98° East 470 541 29,000  Level Atlanta Center
Tue 05:48:29 PM 34.6308 -87.1817 98° East 465 535 29,000  Level Atlanta Center
Tue 05:49:29 PM 34.6136 -87.0272 97° East 465 535 29,000  Level Atlanta Center
Tue 05:50:29 PM 34.5986 -86.8700 97° East 465 535 29,000  Level Atlanta Center
Tue 05:51:41 PM 34.5831 -86.7208 97° East 465 535 29,000  Level Atlanta Center
Tue 05:52:41 PM 34.5658 -86.5511 97° East 465 535 29,000  Level Atlanta Center
Tue 05:53:41 PM 34.5500 -86.3994 97° East 465 535 29,000  Level Atlanta Center
Tue 05:54:41 PM 34.5342 -86.2478 97° East 465 535 29,000  Level Atlanta Center
Tue 05:55:41 PM 34.5181 -86.0933 98° East 465 535 29,000  Level Atlanta Center
Tue 05:56:41 PM 34.4997 -85.9392 98° East 465 535 29,000  Level Atlanta Center
Tue 05:57:41 PM 34.4792 -85.7700 99° East 465 535 29,000  Level Atlanta Center
Tue 05:58:41 PM 34.4603 -85.6183 97° East 460 529 29,000  Level Atlanta Center
Tue 05:59:41 PM 34.4456 -85.4644 99° East 460 529 29,000  Level Atlanta Center
Tue 06:00:41 PM 34.4264 -85.3106 97° East 460 529 29,000  Level Atlanta Center
Tue 06:01:41 PM 34.4131 -85.1719 98° East 466 536 29,000  Level Atlanta Center
Tue 06:02:41 PM 34.3936 -85.0028 98° East 466 536 29,000  Level Atlanta Center
Tue 06:03:41 PM 34.3761 -84.8492 99° East 466 536 29,000  Level Atlanta Center
Tue 06:04:41 PM 34.3561 -84.6906 98° East 466 536 29,000  Level Atlanta Center
Tue 06:05:41 PM 34.3381 -84.5369 98° East 466 536 29,000  Level Atlanta Center
Tue 06:06:41 PM 34.3197 -84.3808 93° East 466 536 29,000  Level Atlanta Center
Tue 06:07:41 PM 34.3139 -84.2250 91° East 466 536 29,000  Level Atlanta Center
Tue 06:08:41 PM 34.3119 -84.0842 90° East 461 531 29,000  Level Atlanta Center
Tue 06:09:41 PM 34.3119 -83.9281 90° East 461 531 29,000  Level Atlanta Center
Tue 06:10:41 PM 34.3117 -83.7722 87° East 461 531 29,000  Level Atlanta Center
Tue 06:11:53 PM 34.3175 -83.6189 87° East 455 524 29,000  Level Atlanta Center
Tue 06:12:53 PM 34.3250 -83.4350 86° East 455 524 29,000  Level Atlanta Center
Tue 06:13:53 PM 34.3344 -83.2817 86° East 460 529 29,000  Level Atlanta Center
Tue 06:14:53 PM 34.3439 -83.1231 80° East 460 529 29,000  Level Atlanta Center
Tue 06:15:53 PM 34.3656 -82.9692 80° East 460 529 29,000  Level Atlanta Center
Tue 06:16:53 PM 34.3892 -82.8003 78° East 468 539 29,000  Level Atlanta Center
Tue 06:17:53 PM 34.4147 -82.6489 80° East 461 531 29,000  Level Atlanta Center
Tue 06:18:53 PM 34.4358 -82.4975 80° East 461 531 29,000  Level Atlanta Center
Tue 06:19:53 PM 34.4589 -82.3433 80° East 461 531 29,000 -182 Level Atlanta Center
Tue 06:21:05 PM 34.4817 -82.1892 80° East 461 531 28,600 -682 Descending Atlanta Center
Tue 06:22:05 PM 34.5042 -82.0375 80° East 466 536 27,500 -578 Descending Atlanta Center
Tue 06:25:35 PM 34.5819 -81.5006 80° East 420 483 26,000 -333 Descending Jacksonville Center
Tue 06:26:35 PM 34.6031 -81.3539 80° East 433 498 26,000  Level Jacksonville Center
Tue 06:27:35 PM 34.6242 -81.2122 80° East 433 498 26,000  Level Jacksonville Center
Tue 06:28:35 PM 34.6450 -81.0631 81° East 433 498 26,000  Level Jacksonville Center
Tue 06:29:35 PM 34.6639 -80.9211 83° East 428 493 26,000 -150 Level Jacksonville Center
Tue 06:30:35 PM 34.6783 -80.7769 93° East 428 493 25,700 -550 Descending Jacksonville Center
Tue 06:31:35 PM 34.6717 -80.6433 96° East 428 493 24,900 -850 Descending Jacksonville Center
Tue 06:32:35 PM 34.6586 -80.4997 70° East 428 493 24,000 -450 Descending Jacksonville Center
Tue 06:33:35 PM 34.6978 -80.3675 72° East 412 474 24,000 -781 Level Jacksonville Center
Tue 06:35:01 PM 34.7497 -80.1697 66° East 404 465 22,100 -1,233 Descending Washington Center
Tue 06:36:01 PM 34.7961 -80.0433 40° Northeast 409 471 21,000 -550 Descending Washington Center
Tue 06:37:01 PM 34.8722 -79.9664 42° Northeast 392 451 21,000  Level Washington Center
Tue 06:38:02 PM 34.9547 -79.8747 42° Northeast 387 445 21,000  Level Washington Center
Tue 06:39:00 PM 35.0394 -79.7828 43° Northeast 397 457 21,000 -655 Level Washington Center
Tue 06:40:01 PM 35.1197 -79.6928 41° Northeast 397 457 19,700 -1,736 Descending Washington Center
Tue 06:41:01 PM 35.2083 -79.5983 31° Northeast 397 457 17,500 -2,083 Descending Washington Center
Tue 06:42:02 PM 35.2897 -79.5389 29° Northeast 383 441 15,500 -2,136 Descending Washington Center
Tue 06:42:59 PM 35.3858 -79.4722 30° Northeast 370 426 13,300 -1,953 Descending Washington Center
Tue 06:44:11 PM 35.4839 -79.4031 48° Northeast 349 402 11,300 -1,038 Descending Washington Center
Tue 06:45:12 PM 35.5472 -79.3167 54° Northeast 337 388 11,000 -220 Descending Washington Center
Tue 06:46:00 PM 35.5936 -79.2369 56° Northeast 333 383 10,900 -55 Descending Washington Center
Tue 06:47:01 PM 35.6378 -79.1572 56° Northeast 321 369 10,900 -446 Level Washington Center
Tue 06:48:01 PM 35.6861 -79.0700 57° Northeast 314 361 10,000 -857 Descending Washington Center
Tue 06:49:14 PM 35.7458 -78.9547 27° Northeast 304 350 9,000 -451 Descending Washington Center
Tue 06:50:14 PM 35.8139 -78.9117 19° North 283 326 9,000  Level Washington Center
Tue 06:51:18 PM 35.8814 -78.8836 17° North 251 289 9,000 -590 Level Washington Center
Tue 06:52:16 PM 35.9489 -78.8583 43° Northeast 242 278 7,800 -1,780 Descending Washington Center
Tue 06:53:16 PM 35.9983 -78.8014 39° Northeast 250 288 5,500 -1,984 Descending Washington Center
Tue 06:54:20 PM 36.0519 -78.7469 39° Northeast 244 281 3,700 -1,688 Descending Washington Center

Login

Don't have an account? Register now (free) for customized features, flight alerts, and more!